createdAt,value
2022-08-22T00:01:15.746Z,0.70
2022-08-22T00:03:02.138Z,0.40
2022-08-22T00:03:08.202Z,0.73
2022-08-22T00:03:12.014Z,0.60
2022-08-22T00:03:55.716Z,0.60
2022-08-22T00:06:34.386Z,1.20
2022-08-22T00:09:15.631Z,0.90
2022-08-22T00:11:51.805Z,0.60
2022-08-22T00:14:25.820Z,0.53
2022-08-22T00:17:13.292Z,0.70
2022-08-22T00:20:04.375Z,0.50
2022-08-22T00:22:40.174Z,0.60
2022-08-22T00:25:25.952Z,0.60
2022-08-22T00:27:57.995Z,1.20
2022-08-22T00:30:27.617Z,0.70
2022-08-22T00:32:59.920Z,0.70
2022-08-22T00:35:36.452Z,0.70
2022-08-22T00:38:11.265Z,0.80
2022-08-22T00:40:58.151Z,1.10
2022-08-22T00:43:55.331Z,0.60
2022-08-22T00:46:41.901Z,0.83
2022-08-22T00:49:25.412Z,0.77
2022-08-22T00:52:41.441Z,1.00
2022-08-22T00:55:28.990Z,0.80
2022-08-22T00:58:22.138Z,0.70
2022-08-22T01:00:54.775Z,0.70
2022-08-22T01:03:59.817Z,0.83
2022-08-22T01:06:41.031Z,0.77
2022-08-22T01:09:18.650Z,0.67
2022-08-22T01:12:06.193Z,0.90
2022-08-22T01:14:46.760Z,1.63
2022-08-22T01:17:53.350Z,1.37
2022-08-22T01:21:08.648Z,1.13
2022-08-22T01:24:22.330Z,1.43
2022-08-22T01:27:18.219Z,1.00
2022-08-22T01:30:18.383Z,0.80
2022-08-22T01:33:33.247Z,0.97
2022-08-22T01:36:24.335Z,0.83
2022-08-22T01:39:04.049Z,0.80
2022-08-22T01:42:04.370Z,0.90
2022-08-22T01:44:59.847Z,1.20
2022-08-22T01:47:36.627Z,1.03
2022-08-22T01:50:31.796Z,0.83
2022-08-22T01:53:06.899Z,0.80
2022-08-22T01:55:39.810Z,1.03
2022-08-22T01:58:17.783Z,0.73
2022-08-22T02:01:04.051Z,0.83
2022-08-22T02:03:35.038Z,0.90
2022-08-22T02:06:08.334Z,0.57
2022-08-22T02:08:51.675Z,0.63
2022-08-22T02:11:38.943Z,0.63
2022-08-22T02:14:18.408Z,0.70
2022-08-22T02:16:50.540Z,0.50
2022-08-22T02:19:34.548Z,0.60
2022-08-22T02:22:08.294Z,0.63
2022-08-22T02:24:52.223Z,0.50
2022-08-22T02:27:31.915Z,0.70
2022-08-22T02:30:05.863Z,0.77
2022-08-22T02:32:46.055Z,0.70
2022-08-22T02:35:23.182Z,0.70
2022-08-22T02:38:02.672Z,0.60
2022-08-22T02:40:39.852Z,0.70
2022-08-22T02:43:18.094Z,0.50
2022-08-22T02:45:52.666Z,1.03
2022-08-22T02:48:34.315Z,0.80
2022-08-22T02:51:09.485Z,0.70
2022-08-22T02:53:46.212Z,0.70
2022-08-22T02:56:20.607Z,0.77
2022-08-22T02:58:53.877Z,1.00
2022-08-22T03:01:38.639Z,0.73
2022-08-22T03:04:39.221Z,0.80
2022-08-22T03:07:14.352Z,1.10
2022-08-22T03:09:48.782Z,0.70
2022-08-22T03:12:26.046Z,0.80
2022-08-22T03:15:03.297Z,0.87
2022-08-22T03:17:36.114Z,0.80
2022-08-22T03:20:10.456Z,0.70
2022-08-22T03:22:45.990Z,0.77
2022-08-22T03:25:26.661Z,0.80
2022-08-22T03:28:02.019Z,1.13
2022-08-22T03:30:37.339Z,1.10
2022-08-22T03:33:20.638Z,0.80
2022-08-22T03:36:10.564Z,0.97
2022-08-22T03:38:52.691Z,1.30
2022-08-22T03:41:37.143Z,0.70
2022-08-22T03:44:30.611Z,0.80
2022-08-22T03:47:22.350Z,0.77
2022-08-22T03:50:12.284Z,1.03
2022-08-22T03:53:18.857Z,1.27
2022-08-22T03:56:22.679Z,0.97
2022-08-22T03:59:19.434Z,1.07
2022-08-22T04:02:24.801Z,0.97
2022-08-22T04:05:28.160Z,1.27
2022-08-22T04:08:29.736Z,1.83
2022-08-22T04:11:13.723Z,1.27
2022-08-22T04:14:07.535Z,1.00
2022-08-22T04:17:10.736Z,1.53
2022-08-22T04:19:54.499Z,2.43
2022-08-22T04:22:34.710Z,2.27
2022-08-22T04:25:08.168Z,1.50
2022-08-22T04:27:42.644Z,1.20
2022-08-22T04:30:23.462Z,1.40
2022-08-22T04:33:02.388Z,1.40
2022-08-22T04:35:34.255Z,1.20
2022-08-22T04:38:09.040Z,1.10
2022-08-22T04:40:43.449Z,1.10
2022-08-22T04:43:18.327Z,1.20
2022-08-22T04:45:53.330Z,1.40
2022-08-22T04:48:30.319Z,1.20
2022-08-22T04:51:04.152Z,1.10
2022-08-22T04:54:15.941Z,1.10
2022-08-22T04:56:58.010Z,1.03
2022-08-22T04:59:26.808Z,1.73
2022-08-22T05:01:57.830Z,0.90
2022-08-22T05:04:30.402Z,1.23
2022-08-22T05:07:05.533Z,0.93
2022-08-22T05:09:36.196Z,2.10
2022-08-22T05:12:09.060Z,1.10
2022-08-22T05:14:41.318Z,0.90
2022-08-22T05:17:15.539Z,1.07
2022-08-22T05:19:50.719Z,1.53
2022-08-22T05:22:22.749Z,0.80
2022-08-22T05:24:55.428Z,0.90
2022-08-22T05:27:26.798Z,1.27
2022-08-22T05:30:02.239Z,0.87
2022-08-22T05:32:34.073Z,1.00
2022-08-22T05:35:06.750Z,0.70
2022-08-22T05:37:39.270Z,0.80
2022-08-22T05:40:10.921Z,0.80
2022-08-22T05:42:38.903Z,1.00
2022-08-22T05:45:12.207Z,1.00
2022-08-22T05:47:44.057Z,0.93
2022-08-22T05:50:17.199Z,1.20
2022-08-22T05:53:03.731Z,1.20
2022-08-22T05:55:38.631Z,1.07
2022-08-22T05:58:19.292Z,0.80
2022-08-22T06:00:50.248Z,1.53
2022-08-22T06:03:26.806Z,1.57
2022-08-22T06:06:00.762Z,2.17
2022-08-22T06:08:34.622Z,2.13
2022-08-22T06:11:06.700Z,1.97
2022-08-22T06:13:37.636Z,1.87
2022-08-22T06:16:16.972Z,2.43
2022-08-22T06:18:46.036Z,1.63
2022-08-22T06:21:22.082Z,1.70
2022-08-22T06:23:56.569Z,1.43
2022-08-22T06:26:27.098Z,1.73
2022-08-22T06:28:59.768Z,1.90
2022-08-22T06:31:33.075Z,1.53
2022-08-22T06:34:06.525Z,2.13
2022-08-22T06:36:38.614Z,2.53
2022-08-22T06:39:18.624Z,2.13
2022-08-22T06:41:51.942Z,2.43
2022-08-22T06:44:24.895Z,1.70
2022-08-22T06:46:56.536Z,2.17
2022-08-22T06:49:27.175Z,2.17
2022-08-22T06:52:01.799Z,2.43
2022-08-22T06:54:34.861Z,2.23
2022-08-22T06:57:06.382Z,2.90
2022-08-22T06:59:39.363Z,4.00
2022-08-22T07:02:17.469Z,1.97
2022-08-22T07:04:49.234Z,2.50
2022-08-22T07:07:21.508Z,4.20
2022-08-22T07:09:55.469Z,4.73
2022-08-22T07:12:27.940Z,3.67
2022-08-22T07:15:01.329Z,3.50
2022-08-22T07:17:32.548Z,4.37
2022-08-22T07:20:06.232Z,3.40
2022-08-22T07:22:37.574Z,5.13
2022-08-22T07:25:11.050Z,5.43
2022-08-22T07:27:51.896Z,4.30
2022-08-22T07:30:27.446Z,3.40
2022-08-22T07:33:25.639Z,3.73
2022-08-22T07:35:55.050Z,2.93
2022-08-22T07:38:34.921Z,5.33
2022-08-22T07:41:12.190Z,4.90
2022-08-22T07:43:44.389Z,4.17
2022-08-22T07:46:25.530Z,3.20
2022-08-22T07:49:10.330Z,2.53
2022-08-22T07:51:44.563Z,1.90
2022-08-22T07:54:17.105Z,5.17
2022-08-22T07:56:52.209Z,4.87
2022-08-22T07:59:21.514Z,2.97
2022-08-22T08:01:54.097Z,2.50
2022-08-22T08:04:26.254Z,2.40
2022-08-22T08:06:58.528Z,2.63
2022-08-22T08:09:32.918Z,2.70
2022-08-22T08:12:03.100Z,2.83
2022-08-22T08:14:32.451Z,1.80
2022-08-22T08:17:04.321Z,1.70
2022-08-22T08:19:35.559Z,1.43
2022-08-22T08:22:04.860Z,1.93
2022-08-22T08:24:40.308Z,3.40
2022-08-22T08:27:33.074Z,3.90
2022-08-22T08:30:04.927Z,1.90
2022-08-22T08:32:36.854Z,3.43
2022-08-22T08:35:08.835Z,3.27
2022-08-22T08:37:46.459Z,2.87
2022-08-22T08:40:29.298Z,2.33
2022-08-22T08:43:31.315Z,1.80
2022-08-22T08:46:32.717Z,2.80
2022-08-22T08:49:29.513Z,2.93
2022-08-22T08:52:24.493Z,3.10
2022-08-22T08:55:19.911Z,2.67
2022-08-22T08:58:10.368Z,2.27
2022-08-22T09:00:53.372Z,2.77
2022-08-22T09:03:44.475Z,3.50
2022-08-22T09:06:52.592Z,3.90
2022-08-22T09:09:42.871Z,3.57
2022-08-22T09:12:36.858Z,4.27
2022-08-22T09:15:38.909Z,4.97
2022-08-22T09:18:52.055Z,3.17
2022-08-22T09:21:46.618Z,2.27
2022-08-22T09:24:46.895Z,4.17
2022-08-22T09:27:21.602Z,4.43
2022-08-22T09:29:59.763Z,4.33
2022-08-22T09:32:44.135Z,4.30
2022-08-22T09:35:22.521Z,2.80
2022-08-22T09:38:01.899Z,3.63
2022-08-22T09:40:35.396Z,2.83
2022-08-22T09:43:07.555Z,3.13
2022-08-22T09:46:01.854Z,5.38
2022-08-22T09:48:45.260Z,5.40
2022-08-22T09:51:31.488Z,3.65
2022-08-22T09:54:22.929Z,4.55
2022-08-22T09:57:01.226Z,2.53
2022-08-22T10:00:00.306Z,3.10
2022-08-22T10:02:36.377Z,3.38
2022-08-22T10:05:40.935Z,5.78
2022-08-22T10:08:20.268Z,3.33
2022-08-22T10:11:15.922Z,3.00
2022-08-22T10:13:57.351Z,3.95
2022-08-22T10:17:05.371Z,2.55
2022-08-22T10:19:41.559Z,1.65
2022-08-22T10:22:45.163Z,3.00
2022-08-22T10:25:34.677Z,2.35
2022-08-22T10:28:15.979Z,1.80
2022-08-22T10:30:57.215Z,1.80
2022-08-22T10:33:30.767Z,4.80
2022-08-22T10:36:05.039Z,1.45
2022-08-22T10:38:46.168Z,2.75
2022-08-22T10:41:26.595Z,1.00
2022-08-22T10:44:04.050Z,2.00
2022-08-22T10:46:38.937Z,3.17
2022-08-22T10:49:17.934Z,1.92
2022-08-22T10:51:52.964Z,2.58
2022-08-22T10:54:51.365Z,1.52
2022-08-22T10:57:35.524Z,3.58
2022-08-22T11:00:12.023Z,2.97
2022-08-22T11:03:00.817Z,1.88
2022-08-22T11:05:35.633Z,2.70
2022-08-22T11:08:39.542Z,1.85
2022-08-22T11:11:20.418Z,6.68
2022-08-22T11:14:25.808Z,2.80
2022-08-22T11:17:00.666Z,2.53
2022-08-22T11:19:44.983Z,1.35
2022-08-22T11:22:29.764Z,1.52
2022-08-22T11:25:38.685Z,1.50
2022-08-22T11:28:39.831Z,2.35
2022-08-22T11:31:21.500Z,1.23
2022-08-22T11:33:54.154Z,2.25
2022-08-22T11:36:37.244Z,2.45
2022-08-22T11:39:24.379Z,2.70
2022-08-22T11:42:06.533Z,2.72
2022-08-22T11:44:50.823Z,4.55
2022-08-22T11:47:26.615Z,2.53
2022-08-22T11:50:01.538Z,1.80
2022-08-22T11:52:54.650Z,2.35
2022-08-22T11:55:34.543Z,3.25
2022-08-22T11:58:21.162Z,3.80
2022-08-22T12:01:00.921Z,1.63
2022-08-22T12:03:58.121Z,1.92
2022-08-22T12:06:59.880Z,1.40
2022-08-22T12:09:50.619Z,1.40
2022-08-22T12:12:35.047Z,1.65
2022-08-22T12:15:12.255Z,1.63
2022-08-22T12:18:26.722Z,1.73
2022-08-22T12:21:10.892Z,1.27
2022-08-22T12:23:57.322Z,1.60
2022-08-22T12:26:33.754Z,1.10
2022-08-22T12:29:19.910Z,1.55
2022-08-22T12:32:34.383Z,1.88
2022-08-22T12:35:30.049Z,1.42
2022-08-22T12:38:28.055Z,0.90
2022-08-22T12:41:28.312Z,1.42
2022-08-22T12:44:17.802Z,1.00
2022-08-22T12:47:02.941Z,1.02
2022-08-22T12:49:49.813Z,2.65
2022-08-22T12:52:38.893Z,1.38
2022-08-22T12:55:28.585Z,1.25
2022-08-22T12:58:05.118Z,1.30
2022-08-22T13:00:36.864Z,1.00
2022-08-22T13:03:09.598Z,0.80
2022-08-22T13:05:41.050Z,1.00
2022-08-22T13:08:12.753Z,0.82
2022-08-22T13:10:47.788Z,0.90
2022-08-22T13:13:28.237Z,2.53
2022-08-22T13:16:08.478Z,0.95
2022-08-22T13:18:40.360Z,0.85
2022-08-22T13:21:17.608Z,0.93
2022-08-22T13:23:54.240Z,1.00
2022-08-22T13:26:31.864Z,1.25
2022-08-22T13:29:24.785Z,2.88
2022-08-22T13:31:59.273Z,2.25
2022-08-22T13:34:39.493Z,1.92
2022-08-22T13:37:13.214Z,1.20
2022-08-22T13:39:46.342Z,1.45
2022-08-22T13:42:30.351Z,1.73
2022-08-22T13:45:02.382Z,1.42
2022-08-22T13:47:34.557Z,2.20
2022-08-22T13:50:13.817Z,3.60
2022-08-22T13:52:52.558Z,4.32
2022-08-22T13:55:30.784Z,2.40
2022-08-22T13:58:11.477Z,2.15
2022-08-22T14:01:39.748Z,2.33
2022-08-22T14:04:29.053Z,1.80
2022-08-22T14:07:25.488Z,3.08
2022-08-22T14:09:59.648Z,2.42
2022-08-22T14:12:50.113Z,1.75
2022-08-22T14:15:26.293Z,2.85
2022-08-22T14:18:10.385Z,2.17
2022-08-22T14:20:41.335Z,2.17
2022-08-22T14:23:17.220Z,2.10
2022-08-22T14:25:45.681Z,1.00
2022-08-22T14:28:28.626Z,1.33
2022-08-22T14:31:01.882Z,2.70
2022-08-22T14:33:36.346Z,1.52
2022-08-22T14:36:15.306Z,1.88
2022-08-22T14:38:48.286Z,1.42
2022-08-22T14:41:55.740Z,2.08
2022-08-22T14:44:23.392Z,2.17
2022-08-22T14:46:56.228Z,1.13
2022-08-22T14:49:47.751Z,2.03
2022-08-22T14:52:31.651Z,3.70
2022-08-22T14:55:19.354Z,2.72
2022-08-22T14:57:53.632Z,2.83
2022-08-22T15:00:34.664Z,2.45
2022-08-22T15:03:22.006Z,3.90
2022-08-22T15:05:52.264Z,1.30
2022-08-22T15:08:27.729Z,1.65
2022-08-22T15:11:11.652Z,1.13
2022-08-22T15:13:44.136Z,0.85
2022-08-22T15:16:18.562Z,0.98
2022-08-22T15:18:51.934Z,1.00
2022-08-22T15:21:24.333Z,1.00
2022-08-22T15:23:55.290Z,0.70
2022-08-22T15:26:30.691Z,0.57
2022-08-22T15:29:06.935Z,0.73
2022-08-22T15:31:36.161Z,0.70
2022-08-22T15:34:14.443Z,0.70
2022-08-22T15:37:09.801Z,2.33
2022-08-22T15:40:00.552Z,1.85
2022-08-22T15:42:34.116Z,1.10
2022-08-22T15:45:03.008Z,1.13
2022-08-22T15:47:38.099Z,0.80
2022-08-22T15:50:14.766Z,0.80
2022-08-22T15:53:13.216Z,1.25
2022-08-22T15:56:20.259Z,2.28
2022-08-22T15:58:50.775Z,0.82
2022-08-22T16:01:22.230Z,0.57
2022-08-22T16:03:57.074Z,1.42
2022-08-22T16:06:43.154Z,0.82
2022-08-22T16:09:32.588Z,0.95
2022-08-22T16:12:05.220Z,1.95
2022-08-22T16:14:49.905Z,1.52
2022-08-22T16:17:41.745Z,1.73
2022-08-22T16:20:58.326Z,2.20
2022-08-22T16:23:27.568Z,1.77
2022-08-22T16:26:10.728Z,1.30
2022-08-22T16:28:59.141Z,1.10
2022-08-22T16:31:33.736Z,2.00
2022-08-22T16:34:24.171Z,1.42
2022-08-22T16:37:31.639Z,1.35
2022-08-22T16:40:15.314Z,0.90
2022-08-22T16:42:46.419Z,1.05
2022-08-22T16:45:20.121Z,1.48
2022-08-22T16:47:52.778Z,1.20
2022-08-22T16:50:33.809Z,1.63
2022-08-22T16:53:06.291Z,0.90
2022-08-22T16:55:45.264Z,1.00
2022-08-22T16:58:40.064Z,1.52
2022-08-22T17:01:20.791Z,0.82
2022-08-22T17:03:58.659Z,1.13
2022-08-22T17:06:39.388Z,1.23
2022-08-22T17:09:24.546Z,0.77
2022-08-22T17:12:03.586Z,0.98
2022-08-22T17:14:42.316Z,0.88
2022-08-22T17:17:25.633Z,0.90
2022-08-22T17:20:07.705Z,1.13
2022-08-22T17:22:46.806Z,1.17
2022-08-22T17:25:22.267Z,0.98
2022-08-22T17:28:11.920Z,0.90
2022-08-22T17:30:47.103Z,1.08
2022-08-22T17:33:27.824Z,1.15
2022-08-22T17:36:06.055Z,1.00
2022-08-22T17:38:56.667Z,1.02
2022-08-22T17:41:34.887Z,0.85
2022-08-22T17:44:14.967Z,1.17
2022-08-22T17:46:50.966Z,1.42
2022-08-22T17:49:29.673Z,1.40
2022-08-22T17:52:01.351Z,1.77
2022-08-22T17:54:40.456Z,1.70
2022-08-22T17:57:13.623Z,1.60
2022-08-22T17:59:51.484Z,1.10
2022-08-22T18:02:24.816Z,1.90
2022-08-22T18:05:01.468Z,1.65
2022-08-22T18:07:37.042Z,2.42
2022-08-22T18:10:14.653Z,2.20
2022-08-22T18:12:48.756Z,2.08
2022-08-22T18:15:26.741Z,2.17
2022-08-22T18:18:00.251Z,1.75
2022-08-22T18:20:34.302Z,1.85
2022-08-22T18:23:21.374Z,1.67
2022-08-22T18:26:05.227Z,2.10
2022-08-22T18:28:41.944Z,1.50
2022-08-22T18:31:28.206Z,1.38
2022-08-22T18:34:02.123Z,1.50
2022-08-22T18:36:35.902Z,1.00
2022-08-22T18:39:09.121Z,1.48
2022-08-22T18:41:42.915Z,0.93
2022-08-22T18:44:12.962Z,2.13
2022-08-22T18:46:46.434Z,1.35
2022-08-22T18:49:43.947Z,1.30
2022-08-22T18:52:19.471Z,1.50
2022-08-22T18:55:17.589Z,1.33
2022-08-22T18:58:05.861Z,1.10
2022-08-22T19:00:57.351Z,1.27
2022-08-22T19:03:46.818Z,1.58
2022-08-22T19:06:47.756Z,1.02
2022-08-22T19:09:33.733Z,0.93
2022-08-22T19:12:13.479Z,1.08
2022-08-22T19:15:05.328Z,0.77
2022-08-22T19:18:08.653Z,0.73
2022-08-22T19:20:57.547Z,1.00
2022-08-22T19:23:47.484Z,0.60
2022-08-22T19:26:28.673Z,1.05
2022-08-22T19:28:59.085Z,0.60
2022-08-22T19:31:45.573Z,0.73
2022-08-22T19:34:19.132Z,0.63
2022-08-22T19:37:32.474Z,0.67
2022-08-22T19:40:05.326Z,1.17
2022-08-22T19:42:36.831Z,0.80
2022-08-22T19:45:19.985Z,1.10
2022-08-22T19:47:57.770Z,1.10
2022-08-22T19:50:31.506Z,1.52
2022-08-22T19:53:24.441Z,1.00
2022-08-22T19:56:06.149Z,1.20
2022-08-22T19:58:46.090Z,1.43
2022-08-22T20:01:39.275Z,0.90
2022-08-22T20:04:20.591Z,1.53
2022-08-22T20:06:57.978Z,1.20
2022-08-22T20:09:39.793Z,1.00
2022-08-22T20:12:15.936Z,0.90
2022-08-22T20:14:46.711Z,0.90
2022-08-22T20:17:39.607Z,0.77
2022-08-22T20:20:18.151Z,0.97
2022-08-22T20:22:52.819Z,1.23
2022-08-22T20:25:41.759Z,1.00
2022-08-22T20:28:36.389Z,2.30
2022-08-22T20:31:08.084Z,1.03
2022-08-22T20:33:39.725Z,1.03
2022-08-22T20:36:21.188Z,1.00
2022-08-22T20:38:59.674Z,0.73
2022-08-22T20:41:34.950Z,1.30
2022-08-22T20:44:11.176Z,1.47
2022-08-22T20:46:54.882Z,0.80
2022-08-22T20:49:26.725Z,0.80
2022-08-22T20:51:56.623Z,0.60
2022-08-22T20:54:27.369Z,0.40
2022-08-22T20:57:00.120Z,0.47
2022-08-22T20:59:32.390Z,0.70
2022-08-22T21:02:09.820Z,0.50
2022-08-22T21:04:46.118Z,0.40
2022-08-22T21:07:21.950Z,0.70
2022-08-22T21:10:16.702Z,0.50
2022-08-22T21:15:42.485Z,0.60
2022-08-22T21:18:12.212Z,0.43
2022-08-22T21:20:41.211Z,0.43
2022-08-22T21:23:20.622Z,0.50
2022-08-22T21:25:51.843Z,0.40
2022-08-22T21:28:31.197Z,1.93
2022-08-22T21:31:08.502Z,0.83
2022-08-22T21:33:39.879Z,0.40
2022-08-22T21:36:11.771Z,0.57
2022-08-22T21:38:40.648Z,0.50
2022-08-22T21:41:08.644Z,0.40
2022-08-22T21:43:39.170Z,0.70
2022-08-22T21:46:08.658Z,0.50
2022-08-22T21:48:40.212Z,0.60
2022-08-22T21:51:42.592Z,0.40
2022-08-22T21:54:39.957Z,0.60
2022-08-22T21:57:36.028Z,0.40
2022-08-22T22:00:11.304Z,0.50
2022-08-22T22:02:43.839Z,0.40
2022-08-22T22:05:14.809Z,0.50
2022-08-22T22:07:45.721Z,0.40
2022-08-22T22:10:16.166Z,0.50
2022-08-22T22:12:46.318Z,0.43
2022-08-22T22:15:17.118Z,0.50
2022-08-22T22:17:46.418Z,0.40
2022-08-22T22:20:17.283Z,0.53
2022-08-22T22:22:46.472Z,0.80
2022-08-22T22:25:40.232Z,0.90
2022-08-22T22:28:06.591Z,0.50
2022-08-22T22:30:34.823Z,0.43
2022-08-22T22:33:04.287Z,0.40
2022-08-22T22:35:32.785Z,0.87
2022-08-22T22:38:01.043Z,0.97
2022-08-22T22:40:29.199Z,0.70
2022-08-22T22:42:57.177Z,0.53
2022-08-22T22:45:25.370Z,0.43
2022-08-22T22:47:53.378Z,0.50
2022-08-22T22:50:23.010Z,0.60
2022-08-22T22:52:51.016Z,0.50
2022-08-22T22:55:24.259Z,0.50
2022-08-22T22:57:58.457Z,0.50
2022-08-22T23:00:31.180Z,0.60
2022-08-22T23:03:00.555Z,0.70
2022-08-22T23:05:30.394Z,0.60
2022-08-22T23:07:59.277Z,0.60
2022-08-22T23:10:28.702Z,0.90
2022-08-22T23:12:56.827Z,0.60
2022-08-22T23:15:24.761Z,0.50
2022-08-22T23:17:52.721Z,0.60
2022-08-22T23:20:20.842Z,0.57
2022-08-22T23:22:50.529Z,0.50
2022-08-22T23:25:18.616Z,0.70
2022-08-22T23:27:48.695Z,0.77
2022-08-22T23:30:20.801Z,0.70
2022-08-22T23:32:49.062Z,0.70
2022-08-22T23:35:16.990Z,0.70
2022-08-22T23:37:44.915Z,0.87
2022-08-22T23:40:14.482Z,0.73
2022-08-22T23:42:42.994Z,1.10
2022-08-22T23:45:11.137Z,0.87
2022-08-22T23:47:39.063Z,0.80
2022-08-22T23:50:07.373Z,0.97
2022-08-22T23:52:35.365Z,1.33
2022-08-22T23:55:03.297Z,0.83
2022-08-22T23:57:32.705Z,1.17
